Time;durP1;ratioP1;P1;durP2;ratioP2;P2;SDS_P1;SDS_P2;PMS_P1;PMS_P2;Temp;Humidity;BMP_temperature;BMP_pressure;BME280_temperature;BME280_humidity;BME280_pressure;Samples;Min_cycle;Max_cycle;Signal;HPM_P1;HPM_P2
2023/05/26 00:00:47;;;;;;;7.17;4.77;;;;;;;;;;5084808;28;20177;-74
2023/05/26 00:03:12;;;;;;;7.50;5.13;;;;;;;;;;5069720;28;20225;-74
2023/05/26 00:05:40;;;;;;;6.30;5.10;;;;;;;;;;5070221;28;20179;-74
2023/05/26 00:08:05;;;;;;;7.13;4.80;;;;;;;;;;5069631;28;20253;-74
2023/05/26 00:10:30;;;;;;;9.37;4.63;;;;;;;;;;5088518;28;20204;-74
2023/05/26 00:12:55;;;;;;;5.30;4.80;;;;;;;;;;5071820;28;20205;-74
2023/05/26 00:15:20;;;;;;;5.73;4.63;;;;;;;;;;5088936;28;20167;-74
2023/05/26 00:17:47;;;;;;;7.30;4.67;;;;;;;;;;5071650;28;20181;-74
2023/05/26 00:20:12;;;;;;;7.23;5.37;;;;;;;;;;5071184;28;20179;-74
2023/05/26 00:22:37;;;;;;;5.47;4.63;;;;;;;;;;5068872;28;20187;-74
2023/05/26 00:25:03;;;;;;;8.33;5.03;;;;;;;;;;5083482;28;20183;-74
2023/05/26 00:27:28;;;;;;;6.63;5.13;;;;;;;;;;5086281;28;20236;-74
2023/05/26 00:29:53;;;;;;;5.03;4.53;;;;;;;;;;5090081;28;20201;-74
2023/05/26 00:32:19;;;;;;;5.40;4.90;;;;;;;;;;5072380;28;20180;-74
2023/05/26 00:34:44;;;;;;;7.17;5.07;;;;;;;;;;5065621;28;20186;-74
2023/05/26 00:37:09;;;;;;;8.50;5.60;;;;;;;;;;5070436;28;20208;-74
2023/05/26 00:39:35;;;;;;;7.93;5.47;;;;;;;;;;5070509;28;20247;-74
2023/05/26 00:42:01;;;;;;;6.77;4.50;;;;;;;;;;5070540;28;20190;-74
2023/05/26 00:44:26;;;;;;;7.47;5.63;;;;;;;;;;5089554;28;20266;-74
2023/05/26 00:46:51;;;;;;;7.67;4.90;;;;;;;;;;5089927;28;20175;-74
2023/05/26 00:49:17;;;;;;;6.63;4.93;;;;;;;;;;5070854;28;20204;-74
2023/05/26 00:51:43;;;;;;;7.80;4.53;;;;;;;;;;5067136;28;20171;-74
2023/05/26 00:54:09;;;;;;;5.20;4.67;;;;;;;;;;5069563;28;20249;-74
2023/05/26 00:56:35;;;;;;;6.67;5.07;;;;;;;;;;5083422;28;20187;-74
2023/05/26 00:59:02;;;;;;;7.60;4.77;;;;;;;;;;5069338;28;20193;-74
2023/05/26 01:01:27;;;;;;;5.40;4.70;;;;;;;;;;5088131;28;20226;-74
2023/05/26 01:03:52;;;;;;;7.80;4.83;;;;;;;;;;5088208;28;20226;-74
2023/05/26 01:06:17;;;;;;;7.67;4.83;;;;;;;;;;5071726;28;20179;-74
2023/05/26 01:08:43;;;;;;;7.87;5.07;;;;;;;;;;5069878;28;20241;-74
2023/05/26 01:11:21;;;;;;;7.57;4.90;;;;;;;;;;5068282;28;20213;-74
2023/05/26 01:13:51;;;;;;;7.10;5.93;;;;;;;;;;5071210;28;20183;-74
2023/05/26 01:16:21;;;;;;;7.20;5.57;;;;;;;;;;5070496;28;20282;-74
2023/05/26 01:18:52;;;;;;;5.97;5.10;;;;;;;;;;5089354;28;20273;-74
2023/05/26 01:21:21;;;;;;;6.40;4.73;;;;;;;;;;5074473;28;20186;-74
2023/05/26 01:23:59;;;;;;;8.20;4.83;;;;;;;;;;5072421;28;20179;-74
2023/05/26 01:26:27;;;;;;;6.53;5.07;;;;;;;;;;5069049;28;20265;-74
2023/05/26 01:28:58;;;;;;;8.63;5.07;;;;;;;;;;5069935;28;20232;-74
2023/05/26 01:31:23;;;;;;;5.60;4.70;;;;;;;;;;5083749;28;20266;-74
2023/05/26 01:33:48;;;;;;;7.93;4.83;;;;;;;;;;5073678;28;20275;-74
2023/05/26 01:36:14;;;;;;;8.30;5.60;;;;;;;;;;5069754;28;20190;-74
2023/05/26 01:38:39;;;;;;;6.03;5.07;;;;;;;;;;5073864;28;20275;-74
2023/05/26 01:41:10;;;;;;;7.77;5.13;;;;;;;;;;5066161;28;20193;-74
2023/05/26 01:43:41;;;;;;;5.93;4.90;;;;;;;;;;5074812;28;20254;-74
2023/05/26 01:46:21;;;;;;;6.43;5.20;;;;;;;;;;5069632;28;20171;-74
2023/05/26 01:48:47;;;;;;;8.80;4.83;;;;;;;;;;5088192;28;20252;-74
2023/05/26 01:51:15;;;;;;;5.40;4.80;;;;;;;;;;5070523;28;20185;-74
2023/05/26 01:53:42;;;;;;;5.90;4.90;;;;;;;;;;5089310;28;20166;-74
2023/05/26 01:56:07;;;;;;;7.60;5.03;;;;;;;;;;5091028;28;20261;-74
2023/05/26 01:58:33;;;;;;;6.90;5.77;;;;;;;;;;5074006;28;20186;-74
2023/05/26 02:00:58;;;;;;;5.47;4.57;;;;;;;;;;5070023;28;20178;-74
2023/05/26 02:03:24;;;;;;;5.43;4.83;;;;;;;;;;5070706;28;20206;-74
2023/05/26 02:05:49;;;;;;;7.47;5.17;;;;;;;;;;5090797;28;20178;-74
2023/05/26 02:08:14;;;;;;;7.17;5.57;;;;;;;;;;5073691;28;20178;-74
2023/05/26 02:10:39;;;;;;;5.90;4.63;;;;;;;;;;5072457;28;20175;-74
2023/05/26 02:13:05;;;;;;;6.80;4.77;;;;;;;;;;5069427;28;20193;-74
2023/05/26 02:15:30;;;;;;;6.37;4.30;;;;;;;;;;5087155;28;20178;-74
2023/05/26 02:17:57;;;;;;;6.87;4.80;;;;;;;;;;5090318;28;20175;-74
2023/05/26 02:20:23;;;;;;;9.07;5.67;;;;;;;;;;5073084;28;20174;-74
2023/05/26 02:22:48;;;;;;;8.23;4.77;;;;;;;;;;5068624;28;20190;-74
2023/05/26 02:25:13;;;;;;;6.77;4.90;;;;;;;;;;5090728;28;20182;-74
2023/05/26 02:27:38;;;;;;;6.67;6.00;;;;;;;;;;5091035;28;20269;-74
2023/05/26 02:30:04;;;;;;;7.67;5.77;;;;;;;;;;5074180;28;20206;-74
2023/05/26 02:32:30;;;;;;;7.23;4.90;;;;;;;;;;5086783;28;20220;-74
2023/05/26 02:34:56;;;;;;;6.27;4.70;;;;;;;;;;5089239;28;20179;-74
2023/05/26 02:37:22;;;;;;;7.90;5.40;;;;;;;;;;5068543;28;20175;-76
2023/05/26 02:39:47;;;;;;;11.37;6.13;;;;;;;;;;5053892;28;20304;-76
2023/05/26 02:42:12;;;;;;;6.60;5.60;;;;;;;;;;5055076;28;20181;-76
2023/05/26 02:44:37;;;;;;;8.37;5.23;;;;;;;;;;5052677;28;20183;-76
2023/05/26 02:47:02;;;;;;;8.33;4.73;;;;;;;;;;5049799;28;20189;-76
2023/05/26 02:49:28;;;;;;;6.63;5.43;;;;;;;;;;5052328;28;20280;-76
2023/05/26 02:51:53;;;;;;;9.07;5.33;;;;;;;;;;5041204;28;20203;-76
2023/05/26 02:54:18;;;;;;;9.20;5.97;;;;;;;;;;5052123;28;20209;-76
2023/05/26 02:56:43;;;;;;;7.10;5.50;;;;;;;;;;5060245;28;20179;-76
2023/05/26 02:59:09;;;;;;;6.67;5.50;;;;;;;;;;5055096;28;20274;-76
2023/05/26 03:01:34;;;;;;;8.00;5.40;;;;;;;;;;5050617;28;20190;-76
2023/05/26 03:03:59;;;;;;;6.23;5.27;;;;;;;;;;5071382;28;20282;-76
2023/05/26 03:06:25;;;;;;;7.13;5.67;;;;;;;;;;5041108;28;20298;-76
2023/05/26 03:08:50;;;;;;;7.30;5.10;;;;;;;;;;5048948;28;20269;-76
2023/05/26 03:11:15;;;;;;;6.67;5.07;;;;;;;;;;5068095;28;20186;-76
2023/05/26 03:13:40;;;;;;;10.63;6.50;;;;;;;;;;5053381;28;20298;-76
2023/05/26 03:16:06;;;;;;;7.23;5.13;;;;;;;;;;5052277;28;20179;-76
2023/05/26 03:18:32;;;;;;;8.23;6.00;;;;;;;;;;5054163;28;20175;-76
2023/05/26 03:20:58;;;;;;;7.20;5.03;;;;;;;;;;5049679;28;20172;-74
2023/05/26 03:23:23;;;;;;;11.90;6.57;;;;;;;;;;5044907;28;20188;-74
2023/05/26 03:25:48;;;;;;;7.30;5.73;;;;;;;;;;5059592;28;20262;-74
2023/05/26 03:28:14;;;;;;;10.70;6.03;;;;;;;;;;5052312;28;20180;-74
2023/05/26 03:30:39;;;;;;;9.23;6.10;;;;;;;;;;5048637;28;20199;-74
2023/05/26 03:33:04;;;;;;;9.23;6.00;;;;;;;;;;5050249;28;20171;-74
2023/05/26 03:35:30;;;;;;;9.07;5.20;;;;;;;;;;5072149;28;20175;-74
2023/05/26 03:37:55;;;;;;;7.37;6.00;;;;;;;;;;5051092;28;20191;-74
2023/05/26 03:40:20;;;;;;;13.00;6.33;;;;;;;;;;5087636;28;20199;-74
2023/05/26 03:42:45;;;;;;;6.40;5.73;;;;;;;;;;5086920;28;20180;-74
2023/05/26 03:45:12;;;;;;;7.17;5.83;;;;;;;;;;5080601;28;20195;-74
2023/05/26 03:47:37;;;;;;;7.80;5.63;;;;;;;;;;5069596;28;20186;-74
2023/05/26 03:50:02;;;;;;;8.90;6.10;;;;;;;;;;5070716;28;20242;-74
2023/05/26 03:52:28;;;;;;;8.90;6.17;;;;;;;;;;5089644;28;20272;-74
2023/05/26 03:54:53;;;;;;;11.87;5.70;;;;;;;;;;5071224;28;20224;-74
2023/05/26 03:57:18;;;;;;;11.30;6.57;;;;;;;;;;5066650;28;20278;-74
2023/05/26 03:59:43;;;;;;;7.93;5.63;;;;;;;;;;5089127;28;20185;-74
2023/05/26 04:02:10;;;;;;;8.77;6.73;;;;;;;;;;5071580;28;20239;-74
2023/05/26 04:04:35;;;;;;;33.63;8.10;;;;;;;;;;5070713;28;20212;-74
2023/05/26 04:07:00;;;;;;;17.03;7.17;;;;;;;;;;5070676;28;20213;-74
2023/05/26 04:09:26;;;;;;;6.00;5.40;;;;;;;;;;5079271;28;20210;-74
2023/05/26 04:11:51;;;;;;;8.27;6.17;;;;;;;;;;5071947;28;20177;-74
2023/05/26 04:14:16;;;;;;;6.90;5.43;;;;;;;;;;5069544;28;20178;-74
2023/05/26 04:16:42;;;;;;;10.37;6.57;;;;;;;;;;5072689;28;20235;-74
2023/05/26 04:19:07;;;;;;;8.77;5.10;;;;;;;;;;5068061;28;20186;-74
2023/05/26 04:21:32;;;;;;;7.23;5.87;;;;;;;;;;5088743;28;20179;-74
2023/05/26 04:23:57;;;;;;;18.17;6.10;;;;;;;;;;5071953;28;20171;-74
2023/05/26 04:26:24;;;;;;;9.30;5.57;;;;;;;;;;5083893;28;20175;-74
2023/05/26 04:28:49;;;;;;;8.93;6.20;;;;;;;;;;5090735;28;20206;-74
2023/05/26 04:31:17;;;;;;;9.30;5.93;;;;;;;;;;5066870;28;20189;-74
2023/05/26 04:33:44;;;;;;;8.50;6.07;;;;;;;;;;5067101;28;20244;-74
2023/05/26 04:36:09;;;;;;;7.87;5.67;;;;;;;;;;5071301;28;20170;-74
2023/05/26 04:38:41;;;;;;;14.70;7.57;;;;;;;;;;5066786;28;20285;-74
2023/05/26 04:41:07;;;;;;;7.67;6.03;;;;;;;;;;5082732;28;20174;-74
2023/05/26 04:43:34;;;;;;;14.23;6.10;;;;;;;;;;5068323;28;20228;-74
2023/05/26 04:45:59;;;;;;;9.80;6.00;;;;;;;;;;5067454;28;20248;-74
2023/05/26 04:48:25;;;;;;;20.70;7.47;;;;;;;;;;5081029;28;20204;-74
2023/05/26 04:50:53;;;;;;;80.83;13.13;;;;;;;;;;5086905;28;20174;-73
2023/05/26 04:53:18;;;;;;;13.03;6.83;;;;;;;;;;5073684;28;20181;-74
2023/05/26 04:55:44;;;;;;;11.43;6.77;;;;;;;;;;5072461;28;20232;-74
2023/05/26 04:58:09;;;;;;;9.83;6.53;;;;;;;;;;5089032;28;20185;-74
2023/05/26 05:00:36;;;;;;;9.07;7.00;;;;;;;;;;5067211;28;20226;-74
2023/05/26 05:03:02;;;;;;;8.47;6.37;;;;;;;;;;5072077;28;20203;-73
2023/05/26 05:05:27;;;;;;;17.50;7.30;;;;;;;;;;5067115;28;20263;-74
2023/05/26 05:07:52;;;;;;;14.47;7.00;;;;;;;;;;5070720;28;20226;-74
2023/05/26 05:10:17;;;;;;;10.63;6.97;;;;;;;;;;5092434;28;20194;-74
2023/05/26 05:12:43;;;;;;;9.23;5.97;;;;;;;;;;5074884;28;20174;-74
2023/05/26 05:15:08;;;;;;;20.30;8.57;;;;;;;;;;5068549;28;20177;-74
2023/05/26 05:17:33;;;;;;;11.23;6.97;;;;;;;;;;5076478;28;20211;-74
2023/05/26 05:19:59;;;;;;;23.47;7.87;;;;;;;;;;5072731;28;20186;-74
2023/05/26 05:22:25;;;;;;;10.73;6.77;;;;;;;;;;5071894;28;20193;-74
2023/05/26 05:24:50;;;;;;;9.53;7.57;;;;;;;;;;5074519;28;20185;-74
2023/05/26 05:27:15;;;;;;;9.03;7.23;;;;;;;;;;5092673;28;20189;-74
2023/05/26 05:29:40;;;;;;;12.20;8.63;;;;;;;;;;5074564;28;20208;-74
2023/05/26 05:32:05;;;;;;;23.27;8.60;;;;;;;;;;5089321;28;20184;-74
2023/05/26 05:34:31;;;;;;;9.27;7.07;;;;;;;;;;5064543;28;20277;-74
2023/05/26 05:36:56;;;;;;;7.10;6.40;;;;;;;;;;5072213;28;20173;-74
2023/05/26 05:39:21;;;;;;;12.17;6.90;;;;;;;;;;5048712;28;20227;-74
2023/05/26 05:41:46;;;;;;;13.67;7.33;;;;;;;;;;5062853;28;20208;-74
2023/05/26 05:44:11;;;;;;;31.53;8.53;;;;;;;;;;5064620;28;20187;-74
2023/05/26 05:46:37;;;;;;;10.10;6.80;;;;;;;;;;5052799;28;20179;-74
2023/05/26 05:49:02;;;;;;;8.13;6.43;;;;;;;;;;5049606;28;20221;-74
2023/05/26 05:51:27;;;;;;;11.37;6.83;;;;;;;;;;5072144;28;20217;-74
2023/05/26 05:56:27;;;;;;;10.67;6.50;;;;;;;;;;5147954;22;20242;-74
2023/05/26 05:58:53;;;;;;;7.60;5.90;;;;;;;;;;5051497;28;20410;-74
2023/05/26 06:01:18;;;;;;;9.33;5.87;;;;;;;;;;5047940;28;20184;-74
2023/05/26 06:03:43;;;;;;;13.20;7.03;;;;;;;;;;5036770;28;20209;-74
2023/05/26 06:06:08;;;;;;;10.13;6.70;;;;;;;;;;5033960;28;20183;-74
2023/05/26 06:08:34;;;;;;;7.87;6.23;;;;;;;;;;5050884;28;20189;-74
2023/05/26 06:10:59;;;;;;;7.50;6.27;;;;;;;;;;5051039;28;20177;-74
2023/05/26 06:13:24;;;;;;;8.67;6.73;;;;;;;;;;5031352;28;20228;-74
2023/05/26 06:15:50;;;;;;;11.80;6.43;;;;;;;;;;5034378;28;20181;-74
2023/05/26 06:18:15;;;;;;;7.33;5.93;;;;;;;;;;5032187;28;20179;-74
2023/05/26 06:20:40;;;;;;;8.07;6.13;;;;;;;;;;5030434;28;20184;-74
2023/05/26 06:23:05;;;;;;;9.83;6.33;;;;;;;;;;5034385;28;20194;-74
2023/05/26 06:25:31;;;;;;;10.40;6.57;;;;;;;;;;5032612;28;20203;-74
2023/05/26 06:27:56;;;;;;;9.47;5.60;;;;;;;;;;5049383;28;20193;-74
2023/05/26 06:30:21;;;;;;;9.23;6.50;;;;;;;;;;5034602;28;20220;-74
2023/05/26 06:32:46;;;;;;;7.47;5.63;;;;;;;;;;5039690;28;20177;-74
2023/05/26 06:35:12;;;;;;;9.07;6.97;;;;;;;;;;5046502;28;20182;-74
2023/05/26 06:37:37;;;;;;;8.13;5.97;;;;;;;;;;5031420;28;20188;-74
2023/05/26 06:40:03;;;;;;;14.80;6.80;;;;;;;;;;5032435;28;20255;-74
2023/05/26 06:42:28;;;;;;;9.20;6.03;;;;;;;;;;5050824;28;20178;-74
2023/05/26 06:44:53;;;;;;;8.10;6.57;;;;;;;;;;5030552;28;20250;-74
2023/05/26 06:47:23;;;;;;;10.10;6.93;;;;;;;;;;5027856;28;20183;-74
2023/05/26 06:49:48;;;;;;;6.97;6.23;;;;;;;;;;5039503;28;20197;-74
2023/05/26 06:52:13;;;;;;;47.83;11.30;;;;;;;;;;5043689;28;20186;-74
2023/05/26 06:54:39;;;;;;;13.27;6.70;;;;;;;;;;5029935;28;20324;-74
2023/05/26 06:57:04;;;;;;;11.80;7.83;;;;;;;;;;5032193;28;20185;-74
2023/05/26 06:59:29;;;;;;;10.83;6.17;;;;;;;;;;5045762;28;20184;-74
2023/05/26 07:01:55;;;;;;;10.63;6.53;;;;;;;;;;5034815;28;20295;-74
2023/05/26 07:04:20;;;;;;;12.07;6.57;;;;;;;;;;5040255;28;20182;-74
2023/05/26 07:06:45;;;;;;;10.73;5.63;;;;;;;;;;5030661;28;20190;-74
2023/05/26 07:09:11;;;;;;;9.37;5.87;;;;;;;;;;5040455;28;20214;-74
2023/05/26 07:11:36;;;;;;;9.43;6.40;;;;;;;;;;5034232;28;20189;-74
2023/05/26 07:14:01;;;;;;;9.37;6.50;;;;;;;;;;5047877;28;20179;-74
2023/05/26 07:16:26;;;;;;;8.80;6.63;;;;;;;;;;5035156;28;20186;-74
2023/05/26 07:18:52;;;;;;;8.13;6.33;;;;;;;;;;5035123;28;20256;-74
2023/05/26 07:21:18;;;;;;;8.63;6.13;;;;;;;;;;5043081;28;20188;-74
2023/05/26 07:23:44;;;;;;;7.17;6.47;;;;;;;;;;5027325;28;20190;-74
2023/05/26 07:26:10;;;;;;;9.07;6.13;;;;;;;;;;5045550;28;20179;-74
2023/05/26 07:28:35;;;;;;;8.60;6.43;;;;;;;;;;5037902;28;20182;-74
2023/05/26 07:31:01;;;;;;;8.70;6.37;;;;;;;;;;5032000;28;20202;-74
2023/05/26 07:33:26;;;;;;;8.77;6.43;;;;;;;;;;5034119;28;20314;-74
2023/05/26 07:35:51;;;;;;;8.97;6.87;;;;;;;;;;5045814;28;20219;-74
2023/05/26 07:38:17;;;;;;;9.67;6.40;;;;;;;;;;5046171;28;20189;-74
2023/05/26 07:40:42;;;;;;;10.73;7.03;;;;;;;;;;5031917;28;20183;-74
2023/05/26 07:43:09;;;;;;;24.43;8.30;;;;;;;;;;5045042;28;20182;-74
2023/05/26 07:45:35;;;;;;;11.30;7.03;;;;;;;;;;5030370;28;20187;-74
2023/05/26 07:48:00;;;;;;;13.10;6.57;;;;;;;;;;5045330;28;20195;-74
2023/05/26 07:50:25;;;;;;;8.73;6.10;;;;;;;;;;5038945;28;20216;-74
2023/05/26 07:52:50;;;;;;;7.10;5.77;;;;;;;;;;5034889;28;20181;-74
2023/05/26 07:55:15;;;;;;;8.13;5.90;;;;;;;;;;5028563;28;20230;-74
2023/05/26 07:57:41;;;;;;;11.20;6.93;;;;;;;;;;5028596;28;20182;-74
2023/05/26 08:00:06;;;;;;;6.30;5.53;;;;;;;;;;5026451;28;20201;-74
2023/05/26 08:02:32;;;;;;;12.13;6.33;;;;;;;;;;5026118;28;20198;-74
2023/05/26 08:04:57;;;;;;;7.57;6.70;;;;;;;;;;5028694;28;20178;-74
2023/05/26 08:07:22;;;;;;;9.63;5.63;;;;;;;;;;5028686;28;20191;-74
2023/05/26 08:09:47;;;;;;;6.83;5.63;;;;;;;;;;5026963;28;20232;-74
2023/05/26 08:12:13;;;;;;;18.13;6.80;;;;;;;;;;5026830;28;20189;-74
2023/05/26 08:14:38;;;;;;;6.07;5.47;;;;;;;;;;5021994;28;20183;-74
2023/05/26 08:17:03;;;;;;;7.13;5.07;;;;;;;;;;5028079;28;20179;-74
2023/05/26 08:19:29;;;;;;;9.33;6.37;;;;;;;;;;5027668;28;20174;-74
2023/05/26 08:21:54;;;;;;;11.37;6.93;;;;;;;;;;5026803;28;20254;-74
2023/05/26 08:24:22;;;;;;;10.17;6.77;;;;;;;;;;5026113;28;20277;-74
2023/05/26 08:26:47;;;;;;;7.13;5.80;;;;;;;;;;5029788;28;20223;-74
2023/05/26 08:29:12;;;;;;;8.40;6.27;;;;;;;;;;5028939;28;20210;-74
2023/05/26 08:31:38;;;;;;;7.03;5.63;;;;;;;;;;5029638;28;20175;-75
2023/05/26 08:34:03;;;;;;;7.03;5.83;;;;;;;;;;5031194;28;20221;-74
2023/05/26 08:36:28;;;;;;;8.33;5.70;;;;;;;;;;5028619;28;20175;-74
2023/05/26 08:38:53;;;;;;;8.60;5.77;;;;;;;;;;5032159;28;20179;-74
2023/05/26 08:41:21;;;;;;;8.70;6.77;;;;;;;;;;5032424;28;20183;-74
2023/05/26 08:43:51;;;;;;;9.20;6.00;;;;;;;;;;5032740;28;20203;-74
2023/05/26 08:46:16;;;;;;;7.53;6.73;;;;;;;;;;5029968;28;20186;-74
2023/05/26 08:48:41;;;;;;;9.63;6.43;;;;;;;;;;5029420;28;20197;-74
2023/05/26 08:51:10;;;;;;;7.80;5.47;;;;;;;;;;5033392;28;20171;-75
2023/05/26 08:53:36;;;;;;;6.60;5.43;;;;;;;;;;5030551;28;20171;-74
2023/05/26 08:56:02;;;;;;;9.83;6.30;;;;;;;;;;5014113;28;20279;-74
2023/05/26 08:58:27;;;;;;;9.57;5.17;;;;;;;;;;5008404;28;20187;-74
2023/05/26 09:00:53;;;;;;;38.43;7.50;;;;;;;;;;5012363;28;20189;-74
2023/05/26 09:03:18;;;;;;;6.97;5.43;;;;;;;;;;5011240;28;20212;-74
2023/05/26 09:05:44;;;;;;;5.83;5.13;;;;;;;;;;5010991;28;20190;-74
2023/05/26 09:08:12;;;;;;;7.60;5.30;;;;;;;;;;5010364;28;20178;-74
2023/05/26 09:10:37;;;;;;;8.40;6.40;;;;;;;;;;5012433;28;20218;-74
2023/05/26 09:13:04;;;;;;;7.43;5.60;;;;;;;;;;5011692;28;20176;-74
2023/05/26 09:15:30;;;;;;;10.43;6.27;;;;;;;;;;5009327;28;20196;-75
2023/05/26 09:18:03;;;;;;;7.30;5.30;;;;;;;;;;5009981;28;20177;-74
2023/05/26 09:20:28;;;;;;;6.27;4.73;;;;;;;;;;5003385;28;20180;-74
2023/05/26 09:22:55;;;;;;;6.57;5.43;;;;;;;;;;5009084;28;20199;-75
2023/05/26 09:25:23;;;;;;;10.63;5.40;;;;;;;;;;5011379;28;20209;-75
2023/05/26 09:27:48;;;;;;;9.27;5.63;;;;;;;;;;5007595;28;20181;-75
2023/05/26 09:30:13;;;;;;;10.10;5.93;;;;;;;;;;5011569;28;20200;-75
2023/05/26 09:32:39;;;;;;;5.97;5.33;;;;;;;;;;5013214;28;20251;-75
2023/05/26 09:35:04;;;;;;;7.40;5.60;;;;;;;;;;5006301;28;20191;-75
2023/05/26 09:37:30;;;;;;;8.53;5.73;;;;;;;;;;5020790;28;20185;-75
2023/05/26 09:40:18;;;;;;;6.60;5.23;;;;;;;;;;5008919;28;20217;-75
2023/05/26 09:43:02;;;;;;;9.33;5.90;;;;;;;;;;5003502;28;20269;-75
2023/05/26 09:45:37;;;;;;;8.87;6.50;;;;;;;;;;5008434;28;20263;-75
2023/05/26 09:48:03;;;;;;;9.23;6.57;;;;;;;;;;5008308;28;20249;-75
2023/05/26 09:50:35;;;;;;;8.57;6.10;;;;;;;;;;5004584;28;20212;-74
2023/05/26 09:53:05;;;;;;;8.80;5.87;;;;;;;;;;5010328;28;20232;-75
2023/05/26 09:55:30;;;;;;;7.77;6.33;;;;;;;;;;5011153;28;20280;-75
2023/05/26 09:58:04;;;;;;;8.63;6.30;;;;;;;;;;5013836;28;20181;-75
2023/05/26 10:00:29;;;;;;;8.60;6.30;;;;;;;;;;5024037;28;20205;-74
2023/05/26 10:02:55;;;;;;;7.77;5.90;;;;;;;;;;5012151;28;20248;-75
2023/05/26 10:05:20;;;;;;;8.17;6.30;;;;;;;;;;5012513;28;20187;-75
2023/05/26 10:07:46;;;;;;;10.83;6.60;;;;;;;;;;5010756;28;20185;-75
2023/05/26 10:10:13;;;;;;;9.20;6.30;;;;;;;;;;5011828;28;20210;-75
2023/05/26 10:12:39;;;;;;;9.97;5.80;;;;;;;;;;5009637;28;20198;-75
2023/05/26 10:15:05;;;;;;;10.00;6.57;;;;;;;;;;5007441;28;20224;-75
2023/05/26 10:17:30;;;;;;;8.23;5.93;;;;;;;;;;5025851;28;20187;-75
2023/05/26 10:19:56;;;;;;;7.77;6.57;;;;;;;;;;5012474;28;20258;-75
2023/05/26 10:22:28;;;;;;;10.97;5.67;;;;;;;;;;5025853;28;20189;-75
2023/05/26 10:24:55;;;;;;;10.37;7.30;;;;;;;;;;5010021;28;20181;-75
2023/05/26 10:27:47;;;;;;;7.90;6.63;;;;;;;;;;5010420;28;20186;-75
2023/05/26 10:30:16;;;;;;;11.87;7.63;;;;;;;;;;4981675;28;20317;-75
2023/05/26 10:32:46;;;;;;;9.30;6.53;;;;;;;;;;5025276;28;20203;-75
2023/05/26 10:35:25;;;;;;;9.67;6.50;;;;;;;;;;5010473;28;20341;-75
2023/05/26 10:38:02;;;;;;;9.20;6.37;;;;;;;;;;5022746;28;20186;-75
2023/05/26 10:40:28;;;;;;;7.10;6.40;;;;;;;;;;5006550;28;20179;-75
2023/05/26 10:43:20;;;;;;;7.80;6.97;;;;;;;;;;5006092;28;20229;-76
2023/05/26 10:45:49;;;;;;;8.73;6.50;;;;;;;;;;5008127;28;20195;-76
2023/05/26 10:48:16;;;;;;;7.83;6.90;;;;;;;;;;5026178;28;20193;-75
2023/05/26 10:50:56;;;;;;;7.33;6.50;;;;;;;;;;5010659;28;20213;-75
2023/05/26 10:53:22;;;;;;;9.13;6.97;;;;;;;;;;5010239;28;20293;-75
2023/05/26 10:55:55;;;;;;;12.00;8.63;;;;;;;;;;5009658;28;20426;-75
2023/05/26 10:58:26;;;;;;;9.90;7.40;;;;;;;;;;5022720;28;20219;-75
2023/05/26 11:00:55;;;;;;;7.47;6.77;;;;;;;;;;5009580;28;20190;-75
2023/05/26 11:03:35;;;;;;;7.63;6.07;;;;;;;;;;5008033;28;20227;-75
2023/05/26 11:06:01;;;;;;;13.87;8.07;;;;;;;;;;5009163;28;20258;-75
2023/05/26 11:08:26;;;;;;;9.77;7.13;;;;;;;;;;5010821;28;20226;-75
2023/05/26 11:10:58;;;;;;;10.03;7.57;;;;;;;;;;5008661;28;20230;-75
2023/05/26 11:13:39;;;;;;;12.17;7.43;;;;;;;;;;5006399;28;20179;-75
2023/05/26 11:16:13;;;;;;;10.23;6.27;;;;;;;;;;5003158;28;20179;-75
2023/05/26 11:18:40;;;;;;;10.95;6.75;;;;;;;;;;5005368;28;20185;-75
2023/05/26 11:21:06;;;;;;;10.07;6.60;;;;;;;;;;5005082;28;20207;-75
2023/05/26 11:23:31;;;;;;;11.30;6.97;;;;;;;;;;5007897;28;20207;-75
2023/05/26 11:25:56;;;;;;;9.30;7.10;;;;;;;;;;5008424;28;20233;-75
2023/05/26 11:28:22;;;;;;;8.25;6.30;;;;;;;;;;5008697;28;20279;-76
2023/05/26 11:30:48;;;;;;;7.80;6.55;;;;;;;;;;5003594;28;20207;-75
2023/05/26 11:33:14;;;;;;;7.93;7.13;;;;;;;;;;5007982;28;20201;-75
2023/05/26 11:35:39;;;;;;;12.32;5.88;;;;;;;;;;5006316;28;20291;-75
2023/05/26 11:38:04;;;;;;;10.32;6.53;;;;;;;;;;5008947;28;20266;-75
2023/05/26 11:40:30;;;;;;;6.78;6.05;;;;;;;;;;5009083;28;20262;-75
2023/05/26 11:42:55;;;;;;;7.72;6.53;;;;;;;;;;5010943;28;20187;-75
2023/05/26 11:45:21;;;;;;;8.98;6.63;;;;;;;;;;5010204;28;20192;-75
2023/05/26 11:47:49;;;;;;;6.45;5.85;;;;;;;;;;5008985;28;20230;-75
2023/05/26 11:50:16;;;;;;;7.18;5.80;;;;;;;;;;5009372;28;20203;-75
2023/05/26 11:52:41;;;;;;;7.68;5.75;;;;;;;;;;5008976;28;20187;-75
2023/05/26 11:55:09;;;;;;;24.50;6.93;;;;;;;;;;5017325;28;20308;-76
2023/05/26 11:57:36;;;;;;;6.80;6.13;;;;;;;;;;5050127;28;20177;-75
2023/05/26 12:00:09;;;;;;;7.90;6.40;;;;;;;;;;5046710;28;20181;-75
2023/05/26 12:02:34;;;;;;;7.68;6.18;;;;;;;;;;5048983;28;20206;-75
2023/05/26 12:04:59;;;;;;;6.03;5.47;;;;;;;;;;5040602;28;20174;-75
2023/05/26 12:07:28;;;;;;;8.93;6.30;;;;;;;;;;5050579;28;20242;-75
2023/05/26 12:10:07;;;;;;;11.70;6.20;;;;;;;;;;5030889;28;20212;-75
2023/05/26 12:12:45;;;;;;;9.57;5.70;;;;;;;;;;5041618;28;20178;-75
2023/05/26 12:15:11;;;;;;;6.97;5.90;;;;;;;;;;5045346;28;20231;-75
2023/05/26 12:17:36;;;;;;;6.57;5.28;;;;;;;;;;5048518;28;20238;-75
2023/05/26 12:20:02;;;;;;;6.05;4.80;;;;;;;;;;5032538;28;20264;-75
2023/05/26 12:22:30;;;;;;;8.20;5.78;;;;;;;;;;5028128;28;20193;-75
2023/05/26 12:25:00;;;;;;;8.23;6.68;;;;;;;;;;5044290;28;20189;-75
2023/05/26 12:27:34;;;;;;;7.25;5.75;;;;;;;;;;5021905;28;20254;-75
2023/05/26 12:30:00;;;;;;;6.05;5.43;;;;;;;;;;5039826;28;20220;-75
2023/05/26 12:32:25;;;;;;;10.00;6.05;;;;;;;;;;5030200;28;20182;-76
2023/05/26 12:34:50;;;;;;;6.88;5.35;;;;;;;;;;5031392;28;20182;-75
2023/05/26 12:37:15;;;;;;;5.90;5.30;;;;;;;;;;5026489;28;20174;-76
2023/05/26 12:39:40;;;;;;;10.10;5.68;;;;;;;;;;5050360;28;20190;-75
2023/05/26 12:42:06;;;;;;;7.03;5.70;;;;;;;;;;5048793;28;20223;-75
2023/05/26 12:44:32;;;;;;;5.90;5.30;;;;;;;;;;5030097;28;20224;-75
2023/05/26 12:46:57;;;;;;;10.15;6.43;;;;;;;;;;5032642;28;20174;-76
2023/05/26 12:49:22;;;;;;;13.88;5.88;;;;;;;;;;5030489;28;20198;-76
2023/05/26 12:51:47;;;;;;;6.40;4.40;;;;;;;;;;5046528;28;20180;-76
2023/05/26 12:54:13;;;;;;;7.93;5.47;;;;;;;;;;5048492;28;20182;-75
2023/05/26 12:56:38;;;;;;;8.60;5.35;;;;;;;;;;5045372;28;20316;-75
2023/05/26 12:59:04;;;;;;;6.35;5.70;;;;;;;;;;5045398;28;20182;-76
2023/05/26 13:01:29;;;;;;;8.55;5.22;;;;;;;;;;5028386;28;20190;-75
2023/05/26 13:03:54;;;;;;;12.30;5.45;;;;;;;;;;5049492;28;20194;-75
2023/05/26 13:06:20;;;;;;;8.68;5.25;;;;;;;;;;5031171;28;20262;-75
2023/05/26 13:08:45;;;;;;;5.63;5.05;;;;;;;;;;5039723;28;20182;-76
2023/05/26 13:11:11;;;;;;;6.90;5.57;;;;;;;;;;5047410;28;20196;-75
2023/05/26 13:13:40;;;;;;;6.15;5.03;;;;;;;;;;5034366;28;20181;-75
2023/05/26 13:16:06;;;;;;;8.25;5.30;;;;;;;;;;5032200;28;20181;-75
2023/05/26 13:18:32;;;;;;;6.22;5.13;;;;;;;;;;5051304;28;20186;-76
2023/05/26 13:20:57;;;;;;;5.88;5.18;;;;;;;;;;5034860;28;20269;-76
2023/05/26 13:23:22;;;;;;;7.22;5.20;;;;;;;;;;5037029;28;20250;-76
2023/05/26 13:25:49;;;;;;;5.28;4.82;;;;;;;;;;5036405;28;20178;-75
2023/05/26 13:28:14;;;;;;;7.53;5.07;;;;;;;;;;5043001;28;20178;-75
2023/05/26 13:30:39;;;;;;;5.13;4.45;;;;;;;;;;5035700;28;20288;-75
2023/05/26 13:33:05;;;;;;;8.00;5.15;;;;;;;;;;5052968;28;20172;-75
2023/05/26 13:35:30;;;;;;;12.18;5.22;;;;;;;;;;5030225;28;20186;-75
2023/05/26 13:37:56;;;;;;;5.32;4.40;;;;;;;;;;5049493;28;20174;-75
2023/05/26 13:40:21;;;;;;;6.60;4.70;;;;;;;;;;5030477;28;20213;-75
2023/05/26 13:42:47;;;;;;;6.00;5.05;;;;;;;;;;5042955;28;20236;-75
2023/05/26 13:45:13;;;;;;;7.43;4.90;;;;;;;;;;5036367;28;20217;-75
2023/05/26 13:47:38;;;;;;;5.53;4.82;;;;;;;;;;5032140;28;20170;-75
2023/05/26 13:50:04;;;;;;;7.05;5.32;;;;;;;;;;5035237;28;20217;-75
2023/05/26 13:52:31;;;;;;;6.80;5.00;;;;;;;;;;5046107;28;20183;-75
2023/05/26 13:54:56;;;;;;;7.03;5.40;;;;;;;;;;5046297;28;20222;-75
2023/05/26 13:57:21;;;;;;;7.38;5.07;;;;;;;;;;5033885;28;20185;-75
2023/05/26 13:59:47;;;;;;;7.57;5.22;;;;;;;;;;5038816;28;20302;-75
2023/05/26 14:02:12;;;;;;;6.80;4.97;;;;;;;;;;5034394;28;20198;-76
2023/05/26 14:04:37;;;;;;;7.15;5.47;;;;;;;;;;5049218;28;20182;-75
2023/05/26 14:07:03;;;;;;;6.80;5.07;;;;;;;;;;5035954;28;20197;-75
2023/05/26 14:09:28;;;;;;;6.57;4.85;;;;;;;;;;5047001;28;20275;-76
2023/05/26 14:11:54;;;;;;;6.53;5.18;;;;;;;;;;5035679;28;20181;-76
2023/05/26 14:14:19;;;;;;;6.97;5.30;;;;;;;;;;5033766;28;20193;-75
2023/05/26 14:16:44;;;;;;;8.90;5.07;;;;;;;;;;5051272;28;20182;-75
2023/05/26 14:19:10;;;;;;;6.38;4.65;;;;;;;;;;5033543;28;20202;-75
2023/05/26 14:21:35;;;;;;;5.60;4.32;;;;;;;;;;5051306;28;20213;-75
2023/05/26 14:24:01;;;;;;;5.93;5.20;;;;;;;;;;5030196;28;20185;-75
2023/05/26 14:26:26;;;;;;;6.53;4.72;;;;;;;;;;5030444;28;20182;-75
2023/05/26 14:28:52;;;;;;;5.00;4.47;;;;;;;;;;5031915;28;20232;-75
2023/05/26 14:31:18;;;;;;;7.82;4.90;;;;;;;;;;5049730;28;20212;-75
2023/05/26 14:33:43;;;;;;;6.15;4.88;;;;;;;;;;5033959;28;20182;-75
2023/05/26 14:36:08;;;;;;;8.57;4.32;;;;;;;;;;5036674;28;20174;-74
2023/05/26 14:38:34;;;;;;;10.20;4.53;;;;;;;;;;5050445;28;20270;-75